Time;durP1;ratioP1;P1;durP2;ratioP2;P2;SDS_P1;SDS_P2;PMS_P1;PMS_P2;Temp;Humidity;BMP_temperature;BMP_pressure;BME280_temperature;BME280_humidity;BME280_pressure;Samples;Min_cycle;Max_cycle;Signal;HPM_P1;HPM_P2
2021/01/24 00:00:11;;;;;;;;;;;;;;;7.31;54.97;99283.94;5045470;27;96905;-80
2021/01/24 00:02:37;;;;;;;;;;;;;;;7.23;55.36;99286.91;5049694;27;97419;-82
2021/01/24 00:05:15;;;;;;;;;;;;;;;7.31;55.29;99282.19;5039607;27;96936;-79
2021/01/24 00:07:42;;;;;;;;;;;;;;;7.26;55.36;99276.28;5036292;27;98896;-81
2021/01/24 00:10:10;;;;;;;;;;;;;;;7.37;54.90;99279.28;5034619;27;101689;-80
2021/01/24 00:12:38;;;;;;;;;;;;;;;7.26;55.07;99281.53;5045152;27;97101;-81
2021/01/24 00:15:04;;;;;;;;;;;;;;;7.27;55.00;99285.03;5019555;28;97037;-80
2021/01/24 00:17:33;;;;;;;;;;;;;;;7.25;55.18;99277.19;5036529;27;97817;-80
2021/01/24 00:20:00;;;;;;;;;;;;;;;7.45;54.72;99274.53;5030730;28;97812;-80
2021/01/24 00:22:25;;;;;;;;;;;;;;;7.26;55.39;99284.16;5019949;28;96831;-79
2021/01/24 00:24:51;;;;;;;;;;;;;;;7.52;54.87;99278.56;5017012;28;96981;-79
2021/01/24 00:27:18;;;;;;;;;;;;;;;7.54;53.97;99281.13;5034578;28;101474;-79
2021/01/24 00:29:47;;;;;;;;;;;;;;;7.41;54.57;99286.09;5038949;28;101659;-81
2021/01/24 00:32:13;;;;;;;;;;;;;;;7.47;54.55;99287.59;5026197;28;97462;-82
2021/01/24 00:34:40;;;;;;;;;;;;;;;7.45;54.45;99285.03;5032670;27;96840;-80
2021/01/24 00:37:06;;;;;;;;;;;;;;;7.30;54.96;99283.09;5041065;28;100998;-80
2021/01/24 00:39:32;;;;;;;;;;;;;;;7.52;54.38;99278.56;5032429;28;99896;-80
2021/01/24 00:41:58;;;;;;;;;;;;;;;7.41;54.51;99272.97;5016710;28;96781;-80
2021/01/24 00:44:25;;;;;;;;;;;;;;;7.31;54.92;99278.69;5040090;28;96886;-81
2021/01/24 00:46:51;;;;;;;;;;;;;;;7.52;54.72;99273.31;5024921;28;97791;-81
2021/01/24 00:49:17;;;;;;;;;;;;;;;7.39;54.83;99277.44;5016680;28;98896;-80
2021/01/24 00:51:42;;;;;;;;;;;;;;;7.45;54.16;99277.16;5032680;28;96789;-80
2021/01/24 00:54:08;;;;;;;;;;;;;;;7.59;54.57;99279.16;5033487;28;97987;-80
2021/01/24 00:56:34;;;;;;;;;;;;;;;7.52;54.44;99289.09;5033380;28;98676;-80
2021/01/24 00:59:00;;;;;;;;;;;;;;;7.41;54.79;99299.25;5032763;28;99266;-80
2021/01/24 01:01:27;;;;;;;;;;;;;;;7.44;54.67;99296.47;5030350;28;98843;-80
2021/01/24 01:03:52;;;;;;;;;;;;;;;7.42;54.79;99298.28;5030083;28;97791;-80
2021/01/24 01:06:18;;;;;;;;;;;;;;;7.53;54.76;99295.19;5022043;28;97964;-80
2021/01/24 01:08:44;;;;;;;;;;;;;;;7.42;54.57;99300.94;5013377;28;98528;-80
2021/01/24 01:11:10;;;;;;;;;;;;;;;7.37;54.95;99297.66;5012878;28;98426;-79
2021/01/24 01:13:36;;;;;;;;;;;;;;;7.44;54.66;99293.84;5031466;28;98556;-79
2021/01/24 01:16:01;;;;;;;;;;;;;;;7.45;54.33;99300.81;5031278;28;98840;-79
2021/01/24 01:18:29;;;;;;;;;;;;;;;7.68;53.70;99291.00;5032965;28;97095;-79
2021/01/24 01:20:55;;;;;;;;;;;;;;;7.65;53.96;99294.63;5032978;28;96867;-80
2021/01/24 01:23:21;;;;;;;;;;;;;;;7.26;54.77;99289.41;5032295;28;96846;-79
2021/01/24 01:25:46;;;;;;;;;;;;;;;7.32;54.66;99293.53;5030229;28;98140;-80
2021/01/24 01:28:12;;;;;;;;;;;;;;;7.47;54.41;99296.34;5032213;28;98024;-81
2021/01/24 01:30:38;;;;;;;;;;;;;;;7.27;54.99;99285.88;5043136;27;96733;-79
2021/01/24 01:33:04;;;;;;;;;;;;;;;7.44;54.77;99285.94;5035545;27;96967;-80
2021/01/24 01:35:31;;;;;;;;;;;;;;;7.67;54.10;99291.94;5013431;28;100418;-80
2021/01/24 01:37:56;;;;;;;;;;;;;;;7.51;54.64;99287.38;5027259;28;98122;-80
2021/01/24 01:40:22;;;;;;;;;;;;;;;7.33;54.99;99293.47;5033473;27;96872;-80
2021/01/24 01:42:48;;;;;;;;;;;;;;;7.27;55.12;99298.16;5036945;27;96877;-80
2021/01/24 01:45:14;;;;;;;;;;;;;;;7.04;55.43;99296.53;5019327;27;99167;-80
2021/01/24 01:47:40;;;;;;;;;;;;;;;7.50;54.21;99292.69;5011962;27;98954;-81
2021/01/24 01:50:07;;;;;;;;;;;;;;;7.51;54.39;99291.78;5025400;27;96976;-81
2021/01/24 01:52:34;;;;;;;;;;;;;;;7.34;54.75;99291.72;5030097;27;96880;-81
2021/01/24 01:54:59;;;;;;;;;;;;;;;7.41;54.59;99287.88;5020295;27;98960;-81
2021/01/24 01:57:26;;;;;;;;;;;;;;;7.43;54.51;99293.91;5041053;27;97512;-80
2021/01/24 01:59:52;;;;;;;;;;;;;;;7.34;54.65;99295.19;5052956;27;96769;-80
2021/01/24 02:02:28;;;;;;;;;;;;;;;7.30;54.88;99287.50;5038973;27;96792;-80
2021/01/24 02:04:58;;;;;;;;;;;;;;;7.16;55.03;99304.72;5033971;27;101634;-80
2021/01/24 02:07:29;;;;;;;;;;;;;;;7.11;55.26;99303.22;5028166;27;99509;-80
2021/01/24 02:09:58;;;;;;;;;;;;;;;7.26;54.98;99302.56;5012398;28;96826;-81
2021/01/24 02:12:27;;;;;;;;;;;;;;;7.19;54.89;99303.75;5015894;27;96878;-81
2021/01/24 02:14:55;;;;;;;;;;;;;;;7.12;54.85;99299.69;5012975;27;99033;-81
2021/01/24 02:17:23;;;;;;;;;;;;;;;7.24;54.42;99304.38;5024203;27;101182;-81
2021/01/24 02:19:55;;;;;;;;;;;;;;;7.30;54.77;99296.22;5035084;27;96755;-80
2021/01/24 02:22:22;;;;;;;;;;;;;;;7.23;54.52;99297.41;5030934;27;96922;-81
2021/01/24 02:24:52;;;;;;;;;;;;;;;7.34;54.86;99295.19;5030510;27;99305;-81
2021/01/24 02:27:20;;;;;;;;;;;;;;;7.26;54.93;99297.31;5046091;27;98070;-81
2021/01/24 02:29:51;;;;;;;;;;;;;;;7.24;54.64;99304.38;5034449;27;96754;-80
2021/01/24 02:32:20;;;;;;;;;;;;;;;7.27;54.78;99299.00;5031391;27;96817;-80
2021/01/24 02:34:47;;;;;;;;;;;;;;;7.19;54.63;99301.13;5037035;27;100316;-80
2021/01/24 02:37:15;;;;;;;;;;;;;;;7.29;54.36;99291.03;5038005;28;98281;-80
2021/01/24 02:39:42;;;;;;;;;;;;;;;7.33;54.37;99290.84;5045293;27;96931;-81
2021/01/24 02:42:08;;;;;;;;;;;;;;;7.19;54.62;99295.88;5038221;27;96757;-81
2021/01/24 02:44:34;;;;;;;;;;;;;;;7.23;54.43;99292.16;5048811;28;99922;-80
2021/01/24 02:47:01;;;;;;;;;;;;;;;7.17;54.62;99290.69;5035539;28;98448;-80
2021/01/24 02:49:28;;;;;;;;;;;;;;;7.31;54.07;99295.31;5051043;28;96650;-81
2021/01/24 02:51:54;;;;;;;;;;;;;;;7.32;54.24;99290.91;5048209;28;97328;-81
2021/01/24 02:54:20;;;;;;;;;;;;;;;7.28;53.99;99290.22;5046832;28;96876;-81
2021/01/24 02:56:46;;;;;;;;;;;;;;;7.05;55.38;99282.50;5035815;28;99320;-81
2021/01/24 02:59:13;;;;;;;;;;;;;;;7.29;53.96;99277.91;5037232;28;96666;-81
2021/01/24 03:01:39;;;;;;;;;;;;;;;7.33;54.04;99272.47;5033605;28;96896;-81
2021/01/24 03:04:05;;;;;;;;;;;;;;;7.38;53.71;99280.97;5016178;28;98245;-80
2021/01/24 03:06:31;;;;;;;;;;;;;;;7.08;54.48;99277.13;5018105;28;98212;-80
2021/01/24 03:08:57;;;;;;;;;;;;;;;7.19;54.48;99272.22;5017763;28;96882;-81
2021/01/24 03:11:24;;;;;;;;;;;;;;;7.07;54.83;99270.16;5016396;28;97083;-80
2021/01/24 03:13:54;;;;;;;;;;;;;;;7.22;54.61;99263.38;5027224;28;100550;-80
2021/01/24 03:16:21;;;;;;;;;;;;;;;7.09;54.60;99265.66;5019735;28;98954;-80
2021/01/24 03:18:47;;;;;;;;;;;;;;;7.30;54.20;99256.81;5025695;28;98102;-81
2021/01/24 03:21:15;;;;;;;;;;;;;;;7.26;54.31;99262.28;5016836;28;97126;-81
2021/01/24 03:23:43;;;;;;;;;;;;;;;7.08;55.06;99261.34;5027995;28;99000;-80
2021/01/24 03:26:09;;;;;;;;;;;;;;;7.26;54.23;99260.53;5033401;28;100166;-80
2021/01/24 03:28:37;;;;;;;;;;;;;;;7.49;54.15;99254.19;5034541;28;96756;-81
2021/01/24 03:31:04;;;;;;;;;;;;;;;7.23;54.21;99252.75;5033303;28;96811;-80
2021/01/24 03:33:29;;;;;;;;;;;;;;;7.32;54.57;99254.97;5029224;28;99345;-80
2021/01/24 03:35:55;;;;;;;;;;;;;;;7.42;53.91;99261.50;5014130;28;98039;-81
2021/01/24 03:38:21;;;;;;;;;;;;;;;7.35;54.27;99265.34;5027105;28;96892;-80
2021/01/24 03:40:47;;;;;;;;;;;;;;;7.24;54.40;99256.25;5033390;27;96798;-81
2021/01/24 03:43:14;;;;;;;;;;;;;;;7.27;54.55;99264.00;5029476;27;101463;-81
2021/01/24 03:45:40;;;;;;;;;;;;;;;7.29;54.91;99263.00;5032940;28;99031;-81
2021/01/24 03:48:06;;;;;;;;;;;;;;;7.31;54.81;99257.66;5032368;28;97183;-80
2021/01/24 03:50:32;;;;;;;;;;;;;;;7.29;54.73;99265.63;5040331;28;96881;-81
2021/01/24 03:52:57;;;;;;;;;;;;;;;7.36;54.57;99261.78;5036034;28;98041;-80
2021/01/24 03:55:23;;;;;;;;;;;;;;;7.46;54.26;99256.97;5038989;28;97779;-81
2021/01/24 03:57:50;;;;;;;;;;;;;;;7.46;54.34;99257.84;5035950;28;96755;-80
2021/01/24 04:00:16;;;;;;;;;;;;;;;7.61;54.01;99258.91;5038206;27;96867;-80
2021/01/24 04:02:42;;;;;;;;;;;;;;;7.74;53.47;99261.81;5030272;28;99315;-80
2021/01/24 04:05:08;;;;;;;;;;;;;;;7.51;54.26;99261.09;5031774;28;100615;-80
2021/01/24 04:07:34;;;;;;;;;;;;;;;7.69;53.78;99258.50;5029124;28;96957;-80
2021/01/24 04:09:59;;;;;;;;;;;;;;;7.58;54.02;99252.00;5033024;28;96889;-80
2021/01/24 04:12:25;;;;;;;;;;;;;;;7.53;54.22;99256.63;5027706;28;97934;-80
2021/01/24 04:14:52;;;;;;;;;;;;;;;7.62;54.11;99255.31;5029009;28;102223;-80
2021/01/24 04:17:18;;;;;;;;;;;;;;;7.70;53.97;99253.19;5029064;28;96841;-80
2021/01/24 04:19:44;;;;;;;;;;;;;;;7.67;54.03;99261.25;5031539;28;97009;-81
2021/01/24 04:22:09;;;;;;;;;;;;;;;7.49;54.52;99251.56;5023370;28;98227;-80
2021/01/24 04:24:35;;;;;;;;;;;;;;;7.56;54.33;99256.47;5031696;28;98056;-80
2021/01/24 04:27:01;;;;;;;;;;;;;;;7.66;54.22;99259.53;5032629;28;96823;-80
2021/01/24 04:29:27;;;;;;;;;;;;;;;7.54;54.66;99260.09;5033634;28;96815;-80
2021/01/24 04:31:54;;;;;;;;;;;;;;;7.35;55.24;99252.19;5044799;27;98171;-81
2021/01/24 04:34:19;;;;;;;;;;;;;;;7.53;54.70;99259.25;5038698;28;97881;-80
2021/01/24 04:36:45;;;;;;;;;;;;;;;7.36;55.25;99256.53;5041776;28;96751;-80
2021/01/24 04:39:11;;;;;;;;;;;;;;;7.61;54.77;99257.09;5038689;28;96675;-80
2021/01/24 04:41:37;;;;;;;;;;;;;;;7.52;55.03;99241.78;5042517;27;97266;-81
2021/01/24 04:44:04;;;;;;;;;;;;;;;7.36;55.54;99243.41;5043334;28;97794;-81
2021/01/24 04:46:30;;;;;;;;;;;;;;;7.64;54.69;99250.00;5039582;28;96928;-80
2021/01/24 04:48:58;;;;;;;;;;;;;;;7.47;55.38;99243.78;5023022;28;96936;-80
2021/01/24 04:51:24;;;;;;;;;;;;;;;7.54;55.50;99233.81;5037081;28;101103;-82
2021/01/24 04:53:50;;;;;;;;;;;;;;;7.57;55.15;99233.66;5033160;28;99283;-82
2021/01/24 04:56:16;;;;;;;;;;;;;;;7.59;55.40;99231.81;5034538;27;96908;-82
2021/01/24 04:58:42;;;;;;;;;;;;;;;7.64;55.32;99227.19;5035396;27;96892;-82
2021/01/24 05:01:08;;;;;;;;;;;;;;;7.68;55.39;99228.75;5025160;28;98042;-82
2021/01/24 05:03:35;;;;;;;;;;;;;;;7.55;55.88;99236.34;5032191;27;98394;-82
2021/01/24 05:06:02;;;;;;;;;;;;;;;7.51;55.68;99237.44;5016086;28;96931;-82
2021/01/24 05:08:30;;;;;;;;;;;;;;;7.45;55.92;99224.59;5026157;28;96806;-83
2021/01/24 05:11:02;;;;;;;;;;;;;;;6.96;58.06;99222.47;5034630;28;97075;-82
2021/01/24 05:13:27;;;;;;;;;;;;;;;7.19;57.29;99212.66;5020144;28;100813;-82
2021/01/24 05:15:55;;;;;;;;;;;;;;;7.41;56.59;99222.19;5016176;28;96690;-82
2021/01/24 05:18:21;;;;;;;;;;;;;;;7.59;56.25;99216.91;5017461;28;96701;-81
2021/01/24 05:20:47;;;;;;;;;;;;;;;7.53;56.32;99217.19;5027581;28;101121;-81
2021/01/24 05:23:14;;;;;;;;;;;;;;;7.64;56.26;99206.16;5056419;27;97555;-82
2021/01/24 05:25:40;;;;;;;;;;;;;;;7.69;55.81;99211.19;5045670;28;96822;-81
2021/01/24 05:28:16;;;;;;;;;;;;;;;7.69;55.83;99206.78;5019286;28;96754;-82
2021/01/24 05:30:42;;;;;;;;;;;;;;;7.73;55.53;99208.38;5035055;28;101491;-82
2021/01/24 05:33:08;;;;;;;;;;;;;;;7.67;55.76;99213.91;5033059;28;100947;-81
2021/01/24 05:35:45;;;;;;;;;;;;;;;7.45;56.38;99216.69;5032614;28;96833;-82
2021/01/24 05:38:11;;;;;;;;;;;;;;;7.41;56.84;99220.41;5029430;28;97123;-82
2021/01/24 05:40:39;;;;;;;;;;;;;;;7.53;56.11;99221.59;5030854;27;98994;-81
2021/01/24 05:43:05;;;;;;;;;;;;;;;7.48;56.21;99227.06;5041057;27;99523;-81
2021/01/24 05:45:37;;;;;;;;;;;;;;;7.38;56.73;99227.56;5041915;27;96681;-81
2021/01/24 05:48:04;;;;;;;;;;;;;;;7.60;56.28;99228.28;5048175;27;96797;-82
2021/01/24 05:50:34;;;;;;;;;;;;;;;7.40;56.48;99230.97;5035306;28;100469;-82
2021/01/24 05:53:03;;;;;;;;;;;;;;;7.54;56.35;99228.56;5041428;27;100328;-81
2021/01/24 05:55:29;;;;;;;;;;;;;;;7.21;56.76;99223.09;5056764;27;96840;-81
2021/01/24 05:57:56;;;;;;;;;;;;;;;7.28;57.29;99221.03;5062503;27;96829;-82
2021/01/24 06:00:24;;;;;;;;;;;;;;;7.57;56.62;99218.75;5036641;27;98270;-82
2021/01/24 06:02:51;;;;;;;;;;;;;;;7.44;56.43;99222.88;5049429;27;99176;-82
2021/01/24 06:05:17;;;;;;;;;;;;;;;7.41;56.62;99217.78;5054966;27;97250;-80
2021/01/24 06:07:43;;;;;;;;;;;;;;;7.23;57.12;99218.59;5051644;27;96664;-81
2021/01/24 06:10:09;;;;;;;;;;;;;;;7.44;56.72;99228.13;5052376;27;99755;-80
2021/01/24 06:12:36;;;;;;;;;;;;;;;7.48;56.49;99224.41;5048261;27;98921;-81
2021/01/24 06:15:04;;;;;;;;;;;;;;;7.39;56.82;99229.28;5046555;27;96788;-81
2021/01/24 06:17:30;;;;;;;;;;;;;;;7.35;56.90;99227.72;5061201;27;96811;-80
2021/01/24 06:19:58;;;;;;;;;;;;;;;7.12;57.53;99224.38;5050633;27;99098;-79
2021/01/24 06:22:26;;;;;;;;;;;;;;;7.32;57.13;99223.44;5052071;27;97805;-80
2021/01/24 06:24:55;;;;;;;;;;;;;;;7.39;57.02;99224.88;5054515;27;96834;-80
2021/01/24 06:27:23;;;;;;;;;;;;;;;7.32;56.96;99226.06;5058810;27;97019;-81
2021/01/24 06:29:50;;;;;;;;;;;;;;;7.49;56.71;99234.03;5065073;27;98103;-81
2021/01/24 06:32:26;;;;;;;;;;;;;;;7.58;56.27;99233.59;5048610;27;99752;-81
2021/01/24 06:34:53;;;;;;;;;;;;;;;7.31;57.13;99237.50;5053898;27;97174;-81
2021/01/24 06:37:20;;;;;;;;;;;;;;;7.37;56.87;99242.47;5062531;27;97247;-81
2021/01/24 06:39:49;;;;;;;;;;;;;;;7.52;56.43;99241.78;5053879;27;100683;-80
2021/01/24 06:42:30;;;;;;;;;;;;;;;7.36;56.82;99238.13;5052349;27;99187;-80
2021/01/24 06:44:55;;;;;;;;;;;;;;;7.34;56.59;99241.78;5045586;27;97693;-80
2021/01/24 06:47:38;;;;;;;;;;;;;;;7.30;57.24;99250.72;5054760;27;96805;-80
2021/01/24 06:50:04;;;;;;;;;;;;;;;7.50;56.46;99248.88;5059225;27;99255;-81
2021/01/24 06:52:30;;;;;;;;;;;;;;;7.49;56.63;99247.16;5049048;27;98261;-80
2021/01/24 06:54:56;;;;;;;;;;;;;;;7.55;56.55;99248.66;5054640;27;96867;-80
2021/01/24 06:57:30;;;;;;;;;;;;;;;7.78;56.17;99250.19;5054764;27;96937;-81
2021/01/24 07:00:10;;;;;;;;;;;;;;;7.93;55.32;99250.34;5052174;27;102121;-82
2021/01/24 07:02:37;;;;;;;;;;;;;;;7.79;55.91;99250.13;5054214;27;98939;-82
2021/01/24 07:05:07;;;;;;;;;;;;;;;7.70;55.95;99252.34;5063987;27;96754;-82
2021/01/24 07:07:34;;;;;;;;;;;;;;;7.77;55.70;99251.13;5067065;27;96954;-82
2021/01/24 07:10:00;;;;;;;;;;;;;;;7.64;56.13;99253.47;5052951;27;98897;-81
2021/01/24 07:12:36;;;;;;;;;;;;;;;7.61;56.88;99243.94;5035658;27;97818;-82
2021/01/24 07:15:03;;;;;;;;;;;;;;;7.66;56.16;99249.00;5053762;27;96834;-82
2021/01/24 07:17:29;;;;;;;;;;;;;;;7.87;55.36;99247.16;5059462;27;97600;-82
2021/01/24 07:19:56;;;;;;;;;;;;;;;7.63;56.33;99249.16;5039002;27;100688;-82
2021/01/24 07:22:22;;;;;;;;;;;;;;;7.40;56.77;99258.13;5053927;27;98234;-82
2021/01/24 07:24:49;;;;;;;;;;;;;;;7.45;56.44;99245.59;5053686;27;96766;-82
2021/01/24 07:27:15;;;;;;;;;;;;;;;7.50;56.83;99248.88;5053332;27;96780;-81
2021/01/24 07:29:41;;;;;;;;;;;;;;;7.64;56.32;99250.84;5051720;27;101267;-79
2021/01/24 07:32:08;;;;;;;;;;;;;;;7.28;57.08;99248.19;5054083;27;97630;-79
2021/01/24 07:34:34;;;;;;;;;;;;;;;7.74;56.31;99253.91;5053954;27;96758;-80
2021/01/24 07:37:01;;;;;;;;;;;;;;;7.80;56.01;99251.00;5052352;27;96945;-80
2021/01/24 07:39:29;;;;;;;;;;;;;;;7.80;55.65;99246.59;5052682;27;99214;-80
2021/01/24 07:41:55;;;;;;;;;;;;;;;7.57;56.67;99252.91;5047564;27;101936;-81
2021/01/24 07:44:20;;;;;;;;;;;;;;;7.60;56.33;99258.03;5039420;27;98842;-80
2021/01/24 07:46:46;;;;;;;;;;;;;;;7.89;55.62;99247.91;5039870;27;97021;-81
2021/01/24 07:49:12;;;;;;;;;;;;;;;7.92;55.36;99261.78;5040062;27;101325;-81
2021/01/24 07:51:38;;;;;;;;;;;;;;;7.98;55.16;99255.38;5040757;27;98454;-80
2021/01/24 07:54:05;;;;;;;;;;;;;;;7.80;56.06;99254.47;5048800;27;96784;-81
2021/01/24 07:56:31;;;;;;;;;;;;;;;7.70;56.38;99258.44;5034926;27;96847;-80
2021/01/24 07:58:57;;;;;;;;;;;;;;;7.80;56.39;99264.13;5028867;27;97787;-78
2021/01/24 08:01:26;;;;;;;;;;;;;;;7.70;56.44;99262.84;5030445;27;98050;-80
2021/01/24 08:03:52;;;;;;;;;;;;;;;7.89;55.89;99258.41;5034102;27;96834;-79
2021/01/24 08:06:18;;;;;;;;;;;;;;;7.71;56.18;99257.53;5030793;27;96988;-79
2021/01/24 08:08:45;;;;;;;;;;;;;;;7.96;55.66;99259.84;5013221;28;100950;-79
2021/01/24 08:11:12;;;;;;;;;;;;;;;7.89;55.76;99258.41;5023378;27;102664;-80
2021/01/24 08:13:38;;;;;;;;;;;;;;;7.63;56.60;99264.91;5028367;27;97629;-80
2021/01/24 08:16:05;;;;;;;;;;;;;;;7.64;56.55;99260.50;5020858;27;96962;-80
2021/01/24 08:18:32;;;;;;;;;;;;;;;7.60;56.02;99262.44;5030901;28;100856;-80
2021/01/24 08:20:58;;;;;;;;;;;;;;;7.62;56.26;99260.59;5021291;27;102080;-80
2021/01/24 08:23:24;;;;;;;;;;;;;;;7.67;56.45;99257.75;5012966;27;97517;-81
2021/01/24 08:25:51;;;;;;;;;;;;;;;7.87;55.84;99258.53;5027702;27;98790;-80
2021/01/24 08:28:18;;;;;;;;;;;;;;;7.95;55.47;99255.50;5032305;27;101986;-80
2021/01/24 08:30:44;;;;;;;;;;;;;;;8.02;55.30;99263.03;5031122;27;99309;-80
2021/01/24 08:33:10;;;;;;;;;;;;;;;7.89;55.72;99261.91;5033726;27;96776;-80
2021/01/24 08:35:36;;;;;;;;;;;;;;;8.01;55.89;99260.47;5030253;27;97165;-80
2021/01/24 08:38:03;;;;;;;;;;;;;;;7.96;55.91;99275.63;5030374;27;99287;-80
2021/01/24 08:40:31;;;;;;;;;;;;;;;7.89;55.94;99266.31;5033078;27;98126;-79
2021/01/24 08:42:57;;;;;;;;;;;;;;;7.75;56.03;99274.84;5033028;28;96833;-80
2021/01/24 08:45:25;;;;;;;;;;;;;;;7.87;55.89;99273.44;5035638;28;97008;-80
2021/01/24 08:47:52;;;;;;;;;;;;;;;7.91;55.95;99275.84;5024733;28;99179;-80
2021/01/24 08:50:17;;;;;;;;;;;;;;;7.95;55.97;99276.53;5029887;28;99428;-81
2021/01/24 08:52:43;;;;;;;;;;;;;;;7.95;55.89;99276.53;5041958;28;96855;-79
2021/01/24 08:55:11;;;;;;;;;;;;;;;8.01;55.45;99265.72;5040438;28;96585;-80
2021/01/24 08:57:37;;;;;;;;;;;;;;;8.13;55.08;99272.19;5045389;27;100222;-80
2021/01/24 09:00:06;;;;;;;;;;;;;;;8.18;54.80;99273.66;5038195;28;98047;-79
2021/01/24 09:02:33;;;;;;;;;;;;;;;8.24;54.92;99273.34;5037982;28;96861;-80
2021/01/24 09:05:00;;;;;;;;;;;;;;;8.06;55.57;99270.78;5033981;28;96868;-78
2021/01/24 09:07:34;;;;;;;;;;;;;;;8.02;55.99;99272.69;5049212;27;99515;-81
2021/01/24 09:10:12;;;;;;;;;;;;;;;8.16;55.06;99272.03;5032290;28;97920;-81
2021/01/24 09:12:38;;;;;;;;;;;;;;;7.96;55.89;99270.34;5034509;28;96913;-80
2021/01/24 09:15:04;;;;;;;;;;;;;;;7.98;55.82;99276.41;5016494;27;96830;-80
2021/01/24 09:17:30;;;;;;;;;;;;;;;8.28;54.91;99274.91;5020657;28;98314;-80
2021/01/24 09:19:57;;;;;;;;;;;;;;;8.44;54.43;99268.91;5032842;28;97083;-80
2021/01/24 09:22:23;;;;;;;;;;;;;;;8.42;54.16;99266.34;5031515;27;97908;-80
2021/01/24 09:24:48;;;;;;;;;;;;;;;8.36;54.76;99274.56;5034950;27;97080;-80
2021/01/24 09:27:15;;;;;;;;;;;;;;;8.34;54.75;99276.41;5027673;28;99290;-80
2021/01/24 09:29:41;;;;;;;;;;;;;;;8.23;54.66;99281.31;5029366;28;100719;-81
2021/01/24 09:32:08;;;;;;;;;;;;;;;8.32;54.75;99276.50;5024868;28;97855;-79
2021/01/24 09:34:34;;;;;;;;;;;;;;;8.25;55.13;99277.69;5026196;28;97319;-80
2021/01/24 09:37:01;;;;;;;;;;;;;;;8.10;55.65;99277.59;5029309;28;97806;-81
2021/01/24 09:39:26;;;;;;;;;;;;;;;7.93;56.40;99276.63;5029892;27;98864;-80
2021/01/24 09:41:52;;;;;;;;;;;;;;;8.08;56.09;99282.06;5027632;28;97074;-79
2021/01/24 09:44:18;;;;;;;;;;;;;;;7.92;57.09;99276.69;5028114;28;97410;-80
2021/01/24 09:46:44;;;;;;;;;;;;;;;8.29;55.35;99273.97;5029515;28;98919;-80
2021/01/24 09:49:10;;;;;;;;;;;;;;;8.17;55.84;99273.72;5020873;28;99208;-80
2021/01/24 09:51:36;;;;;;;;;;;;;;;8.55;54.96;99270.06;5031764;27;96960;-81
2021/01/24 09:54:03;;;;;;;;;;;;;;;8.35;55.50;99270.22;5028467;27;97257;-81
2021/01/24 09:56:29;;;;;;;;;;;;;;;8.58;54.82;99272.56;5027528;28;101247;-80
2021/01/24 09:58:55;;;;;;;;;;;;;;;8.57;54.24;99267.38;5029008;28;97767;-79
2021/01/24 10:01:21;;;;;;;;;;;;;;;8.70;54.28;99271.09;5022067;28;98539;-80
2021/01/24 10:03:48;;;;;;;;;;;;;;;8.69;54.30;99269.38;5028680;27;97022;-80
2021/01/24 10:06:14;;;;;;;;;;;;;;;8.52;54.68;99272.03;5029717;28;99053;-81
2021/01/24 10:08:39;;;;;;;;;;;;;;;8.48;54.10;99276.56;5028857;28;100325;-80
2021/01/24 10:11:06;;;;;;;;;;;;;;;8.47;55.33;99269.59;5030620;28;97025;-80
2021/01/24 10:13:32;;;;;;;;;;;;;;;8.55;54.29;99275.34;5030900;27;98143;-79
2021/01/24 10:15:58;;;;;;;;;;;;;;;8.65;54.51;99273.09;5023328;27;98164;-80
2021/01/24 10:18:24;;;;;;;;;;;;;;;8.82;54.00;99273.09;5026514;28;99810;-80
2021/01/24 10:20:50;;;;;;;;;;;;;;;8.60;54.10;99275.94;5036900;28;96915;-80
2021/01/24 10:23:20;;;;;;;;;;;;;;;8.33;54.76;99277.34;5029493;28;98721;-81
2021/01/24 10:25:46;;;;;;;;;;;;;;;8.69;54.38;99274.66;5017948;28;99745;-80
2021/01/24 10:28:12;;;;;;;;;;;;;;;8.87;54.12;99273.69;5025077;28;99259;-80
2021/01/24 10:30:38;;;;;;;;;;;;;;;8.72;54.17;99274.50;5042782;28;97399;-80
2021/01/24 10:33:04;;;;;;;;;;;;;;;7.53;58.26;99275.03;5042397;28;97207;-81
2021/01/24 10:35:30;;;;;;;;;;;;;;;8.16;55.91;99275.50;5031177;28;96948;-80
2021/01/24 10:37:56;;;;;;;;;;;;;;;8.34;55.40;99273.78;5025621;28;99323;-80
2021/01/24 10:40:21;;;;;;;;;;;;;;;8.46;54.58;99280.22;5039891;27;96921;-80
2021/01/24 10:42:48;;;;;;;;;;;;;;;8.70;54.52;99271.09;5025936;28;96958;-80
2021/01/24 10:45:15;;;;;;;;;;;;;;;8.69;54.49;99275.50;5031110;28;99078;-80
2021/01/24 10:47:40;;;;;;;;;;;;;;;8.67;54.24;99277.34;5040370;28;99248;-80
2021/01/24 10:50:08;;;;;;;;;;;;;;;8.70;53.92;99276.34;5064788;27;96662;-82
2021/01/24 10:52:33;;;;;;;;;;;;;;;8.76;54.35;99276.03;5055977;27;97064;-81
2021/01/24 10:54:59;;;;;;;;;;;;;;;8.86;53.62;99271.97;5033461;28;99009;-80
2021/01/24 10:57:25;;;;;;;;;;;;;;;8.88;53.86;99275.41;5027236;28;97296;-80
2021/01/24 10:59:51;;;;;;;;;;;;;;;8.72;54.25;99274.50;5039767;28;97105;-79
2021/01/24 11:02:18;;;;;;;;;;;;;;;9.03;53.22;99277.25;5035760;28;97267;-80
2021/01/24 11:04:44;;;;;;;;;;;;;;;9.05;53.35;99272.75;5023383;28;96912;-80
2021/01/24 11:07:10;;;;;;;;;;;;;;;8.73;53.92;99279.66;5037316;28;100284;-80
2021/01/24 11:09:35;;;;;;;;;;;;;;;9.23;53.51;99272.72;5036618;28;97288;-80
2021/01/24 11:12:02;;;;;;;;;;;;;;;9.07;53.85;99273.50;5032165;28;96809;-78
2021/01/24 11:14:27;;;;;;;;;;;;;;;9.18;52.79;99273.81;5025088;28;100763;-80
2021/01/24 11:16:53;;;;;;;;;;;;;;;8.92;53.26;99279.59;5031313;27;99056;-80
2021/01/24 11:19:20;;;;;;;;;;;;;;;8.79;53.73;99281.16;5032930;28;97063;-81
2021/01/24 11:21:46;;;;;;;;;;;;;;;8.02;56.32;99280.56;5027274;28;96899;-80
2021/01/24 11:24:12;;;;;;;;;;;;;;;8.71;54.98;99278.06;5030105;28;101328;-80
2021/01/24 11:26:38;;;;;;;;;;;;;;;8.48;55.72;99266.03;5030461;27;98063;-80
2021/01/24 11:29:04;;;;;;;;;;;;;;;8.85;54.15;99270.31;5031692;28;98647;-81
2021/01/24 11:31:30;;;;;;;;;;;;;;;8.49;55.17;99278.28;5031549;28;96876;-81
2021/01/24 11:33:56;;;;;;;;;;;;;;;8.40;55.46;99270.88;5028126;28;98151;-80
2021/01/24 11:36:23;;;;;;;;;;;;;;;8.38;55.73;99270.94;5030505;28;100990;-81
2021/01/24 11:38:49;;;;;;;;;;;;;;;7.85;56.49;99275.28;5033882;27;98356;-80
2021/01/24 11:41:15;;;;;;;;;;;;;;;7.82;57.35;99272.78;5031297;28;97198;-79
2021/01/24 11:43:41;;;;;;;;;;;;;;;8.52;55.72;99272.03;5032779;28;98586;-81
2021/01/24 11:46:07;;;;;;;;;;;;;;;8.93;54.72;99268.09;5030201;27;99132;-82
2021/01/24 11:48:32;;;;;;;;;;;;;;;8.54;55.13;99271.00;5037646;28;97417;-81
2021/01/24 11:50:58;;;;;;;;;;;;;;;7.86;57.01;99269.09;5035868;28;96975;-80
2021/01/24 11:53:25;;;;;;;;;;;;;;;7.85;57.75;99264.75;5039517;28;99983;-80
2021/01/24 11:55:52;;;;;;;;;;;;;;;8.63;55.41;99267.06;5035089;28;99389;-80
2021/01/24 11:58:18;;;;;;;;;;;;;;;8.51;56.00;99260.63;5032337;28;97195;-80
2021/01/24 12:00:44;;;;;;;;;;;;;;;7.59;57.47;99266.84;5031554;28;98385;-81
2021/01/24 12:03:10;;;;;;;;;;;;;;;8.38;56.49;99260.41;5021142;28;97749;-83
2021/01/24 12:05:36;;;;;;;;;;;;;;;8.70;55.41;99268.44;5034016;28;99253;-82
2021/01/24 12:08:02;;;;;;;;;;;;;;;8.51;55.75;99265.91;5036170;28;96717;-82
2021/01/24 12:10:29;;;;;;;;;;;;;;;8.23;57.12;99266.38;5027652;28;97203;-80
2021/01/24 12:12:55;;;;;;;;;;;;;;;8.16;57.39;99267.63;5014418;28;101308;-81
2021/01/24 12:15:21;;;;;;;;;;;;;;;8.31;56.52;99261.63;5033095;28;97759;-80
2021/01/24 12:17:47;;;;;;;;;;;;;;;8.42;56.05;99255.81;5033046;28;96740;-81
2021/01/24 12:20:14;;;;;;;;;;;;;;;8.15;57.48;99268.53;5034281;28;97321;-81
2021/01/24 12:22:39;;;;;;;;;;;;;;;7.88;57.92;99262.81;5019573;28;102154;-82
2021/01/24 12:25:06;;;;;;;;;;;;;;;8.36;57.48;99264.88;5045167;28;98401;-82
2021/01/24 12:27:33;;;;;;;;;;;;;;;7.94;57.14;99261.72;5049236;28;96825;-83
2021/01/24 12:29:59;;;;;;;;;;;;;;;8.08;57.33;99253.97;5042948;28;98541;-82
2021/01/24 12:32:25;;;;;;;;;;;;;;;8.00;57.23;99264.03;5045812;28;100038;-82
2021/01/24 12:34:51;;;;;;;;;;;;;;;8.35;56.19;99260.53;5049905;28;100376;-81
2021/01/24 12:37:17;;;;;;;;;;;;;;;7.93;57.53;99263.47;5044995;27;96826;-82
2021/01/24 12:39:43;;;;;;;;;;;;;;;8.14;57.45;99256.31;5033951;28;96543;-81
2021/01/24 12:42:09;;;;;;;;;;;;;;;7.96;57.20;99254.56;5036056;28;96875;-83
2021/01/24 12:44:36;;;;;;;;;;;;;;;8.30;56.64;99262.56;5029396;28;96968;-84
2021/01/24 12:47:02;;;;;;;;;;;;;;;8.32;56.36;99259.84;5025270;27;96855;-81
2021/01/24 12:49:28;;;;;;;;;;;;;;;7.78;57.30;99269.47;5018349;28;97065;-82
2021/01/24 12:51:54;;;;;;;;;;;;;;;8.05;56.84;99267.28;5033551;28;101326;-82